Aviation Digital Data Service (ADDS)

Output produced by METARs form (1536 UTC 18 January 2018)
found at http://aviationweather.gov/adds/metars/
 
KJAN 181454Z 03005KT 10SM CLR M05/M08 A3058 RMK AO2 SLP360 T10501083 51003